createdAt,value
2023-05-14T00:01:10.366Z,50.92
2023-05-14T00:04:16.003Z,51.40
2023-05-14T00:07:31.005Z,52.03
2023-05-14T00:10:36.831Z,52.11
2023-05-14T00:13:43.245Z,51.43
2023-05-14T00:16:48.792Z,52.41
2023-05-14T00:19:55.139Z,52.85
2023-05-14T00:23:04.718Z,52.88
2023-05-14T00:26:11.118Z,52.92
2023-05-14T00:29:17.492Z,53.52
2023-05-14T00:32:23.888Z,53.20
2023-05-14T00:35:29.407Z,52.65
2023-05-14T00:38:38.599Z,53.39
2023-05-14T00:41:44.052Z,53.85
2023-05-14T00:44:50.532Z,53.65
2023-05-14T00:47:58.141Z,53.60
2023-05-14T00:51:04.666Z,54.07
2023-05-14T00:54:13.280Z,53.79
2023-05-14T00:57:19.901Z,54.38
2023-05-14T01:00:26.518Z,54.14
2023-05-14T01:03:35.636Z,54.96
2023-05-14T01:07:05.553Z,55.05
2023-05-14T01:10:24.824Z,55.05
2023-05-14T01:13:48.217Z,54.97
2023-05-14T01:17:02.575Z,54.64
2023-05-14T01:20:10.134Z,54.36
2023-05-14T01:23:21.457Z,54.82
2023-05-14T01:26:27.215Z,54.45
2023-05-14T01:29:40.282Z,54.42
2023-05-14T01:32:56.844Z,54.38
2023-05-14T01:36:05.164Z,55.49
2023-05-14T01:39:18.497Z,55.69
2023-05-14T01:42:26.240Z,55.71
2023-05-14T01:45:31.718Z,55.69
2023-05-14T01:48:38.115Z,55.87
2023-05-14T01:51:43.686Z,55.85
2023-05-14T01:54:53.411Z,54.91
2023-05-14T01:57:59.157Z,55.41
2023-05-14T02:01:05.685Z,55.71
2023-05-14T02:04:11.820Z,55.82
2023-05-14T02:07:21.127Z,55.00
2023-05-14T02:10:29.460Z,55.75
2023-05-14T02:13:35.850Z,55.02
2023-05-14T02:16:41.320Z,55.52
2023-05-14T02:19:47.744Z,55.40
2023-05-14T02:22:53.359Z,55.06
2023-05-14T02:26:03.391Z,55.79
2023-05-14T02:29:08.905Z,55.35
2023-05-14T02:32:15.265Z,55.97
2023-05-14T02:35:20.737Z,56.50
2023-05-14T02:38:29.525Z,55.84
2023-05-14T02:41:38.088Z,55.92
2023-05-14T02:44:45.206Z,56.64
2023-05-14T02:47:50.689Z,56.28
2023-05-14T02:50:57.209Z,55.88
2023-05-14T02:54:02.791Z,56.55
2023-05-14T02:57:12.348Z,56.27
2023-05-14T03:00:18.808Z,56.39
2023-05-14T03:03:25.758Z,56.92
2023-05-14T03:06:31.825Z,56.43
2023-05-14T03:09:38.519Z,56.50
2023-05-14T03:12:47.652Z,56.58
2023-05-14T03:15:55.162Z,56.50
2023-05-14T03:19:01.058Z,56.67
2023-05-14T03:22:07.954Z,57.19
2023-05-14T03:25:13.617Z,56.88
2023-05-14T03:28:22.783Z,56.73
2023-05-14T03:31:28.443Z,56.91
2023-05-14T03:34:37.102Z,57.37
2023-05-14T03:37:42.589Z,57.35
2023-05-14T03:40:49.379Z,57.28
2023-05-14T03:43:57.705Z,57.05
2023-05-14T03:47:04.068Z,56.86
2023-05-14T03:50:11.865Z,56.88
2023-05-14T03:53:18.867Z,56.82
2023-05-14T03:56:25.086Z,57.33
2023-05-14T03:59:35.284Z,56.93
2023-05-14T04:02:40.865Z,56.97
2023-05-14T04:05:47.629Z,56.12
2023-05-14T04:08:53.099Z,55.78
2023-05-14T04:11:59.464Z,56.93
2023-05-14T04:15:10.161Z,56.37
2023-05-14T04:18:17.494Z,56.78
2023-05-14T04:21:22.977Z,56.15
2023-05-14T04:24:29.567Z,56.85
2023-05-14T04:27:36.975Z,56.28
2023-05-14T04:30:46.058Z,55.78
2023-05-14T04:33:51.527Z,56.61
2023-05-14T04:36:57.875Z,55.69
2023-05-14T04:40:03.613Z,55.44
2023-05-14T04:43:10.966Z,55.15
2023-05-14T04:46:19.572Z,55.32
2023-05-14T04:49:26.034Z,55.04
2023-05-14T04:52:31.862Z,55.45
2023-05-14T04:55:38.241Z,54.78
2023-05-14T04:58:43.834Z,56.09
2023-05-14T05:01:52.984Z,55.55
2023-05-14T05:04:58.467Z,54.08
2023-05-14T05:08:04.843Z,54.37
2023-05-14T05:11:10.392Z,54.87
2023-05-14T05:14:16.913Z,54.53
2023-05-14T05:17:25.223Z,53.69
2023-05-14T05:20:31.570Z,52.91
2023-05-14T05:23:37.006Z,52.48
2023-05-14T05:26:43.389Z,52.05
2023-05-14T05:29:49.128Z,52.60
2023-05-14T05:32:58.501Z,52.24
2023-05-14T05:36:04.329Z,52.07
2023-05-14T05:39:10.712Z,51.69
2023-05-14T05:42:16.176Z,51.32
2023-05-14T05:45:22.629Z,51.96
2023-05-14T05:48:31.061Z,51.20
2023-05-14T05:51:37.726Z,51.21
2023-05-14T05:54:43.188Z,51.28
2023-05-14T05:57:49.461Z,50.55
2023-05-14T06:00:55.390Z,50.12
2023-05-14T06:04:05.856Z,50.67
2023-05-14T06:07:11.524Z,49.96
2023-05-14T06:10:18.098Z,49.85
2023-05-14T06:13:23.757Z,49.87
2023-05-14T06:16:30.212Z,49.25
2023-05-14T06:19:38.598Z,49.33
2023-05-14T06:22:45.030Z,49.53
2023-05-14T06:25:50.860Z,49.10
2023-05-14T06:28:58.297Z,49.10
2023-05-14T06:32:07.030Z,48.60
2023-05-14T06:35:16.681Z,48.14
2023-05-14T06:38:22.245Z,47.51
2023-05-14T06:41:29.842Z,47.30
2023-05-14T06:44:36.512Z,47.09
2023-05-14T06:47:42.890Z,47.12
2023-05-14T06:50:52.822Z,46.48
2023-05-14T06:53:59.502Z,46.81
2023-05-14T06:57:05.011Z,46.67
2023-05-14T07:00:12.958Z,46.65
2023-05-14T07:03:37.670Z,46.79
2023-05-14T07:06:47.064Z,45.86
2023-05-14T07:09:52.738Z,46.17
2023-05-14T07:12:59.055Z,45.95
2023-05-14T07:16:04.539Z,45.28
2023-05-14T07:19:11.177Z,44.91
2023-05-14T07:22:19.563Z,45.18
2023-05-14T07:25:26.025Z,44.63
2023-05-14T07:28:31.519Z,44.18
2023-05-14T07:31:37.897Z,44.57
2023-05-14T07:34:43.668Z,44.28
2023-05-14T07:37:52.894Z,43.35
2023-05-14T07:40:58.764Z,43.85
2023-05-14T07:44:05.432Z,43.38
2023-05-14T07:47:11.164Z,42.65
2023-05-14T07:50:17.630Z,42.84
2023-05-14T07:53:26.563Z,43.39
2023-05-14T07:56:33.117Z,42.89
2023-05-14T07:59:38.671Z,42.63
2023-05-14T08:02:45.729Z,43.13
2023-05-14T08:05:52.086Z,42.85
2023-05-14T08:09:01.216Z,42.75
2023-05-14T08:12:08.306Z,43.10
2023-05-14T08:15:15.282Z,42.45
2023-05-14T08:18:20.880Z,42.88
2023-05-14T08:21:28.376Z,42.20
2023-05-14T08:24:36.917Z,42.46
2023-05-14T08:27:43.517Z,42.63
2023-05-14T08:30:49.044Z,41.82
2023-05-14T08:33:55.489Z,42.56
2023-05-14T08:37:01.049Z,42.76
2023-05-14T08:40:12.699Z,42.45
2023-05-14T08:43:29.668Z,42.72
2023-05-14T08:46:37.607Z,42.32
2023-05-14T08:49:46.813Z,42.90
2023-05-14T08:52:53.459Z,42.17
2023-05-14T08:56:06.425Z,41.89
2023-05-14T08:59:12.841Z,42.52
2023-05-14T09:02:20.932Z,42.54
2023-05-14T09:05:28.599Z,41.93
2023-05-14T09:08:36.592Z,42.28
2023-05-14T09:11:50.617Z,41.92
2023-05-14T09:14:56.212Z,41.78
2023-05-14T09:18:02.832Z,41.25
2023-05-14T09:21:08.661Z,41.32
2023-05-14T09:24:24.253Z,41.68
2023-05-14T09:27:36.671Z,41.47
2023-05-14T09:30:43.090Z,41.08
2023-05-14T09:33:54.529Z,41.11
2023-05-14T09:37:04.256Z,41.15
2023-05-14T09:40:11.201Z,40.28
2023-05-14T09:43:20.453Z,40.85
2023-05-14T09:46:30.384Z,40.02
2023-05-14T09:49:37.468Z,39.17
2023-05-14T09:52:43.127Z,38.67
2023-05-14T09:55:50.380Z,38.45
2023-05-14T09:58:59.096Z,38.31
2023-05-14T10:02:08.666Z,38.76
2023-05-14T10:05:16.621Z,39.10
2023-05-14T10:08:31.056Z,39.05
2023-05-14T10:11:41.696Z,39.16
2023-05-14T10:14:53.943Z,38.59
2023-05-14T10:18:04.021Z,38.32
2023-05-14T10:21:13.888Z,37.84
2023-05-14T10:24:21.521Z,37.09
2023-05-14T10:27:29.726Z,37.14
2023-05-14T10:30:38.278Z,37.46
2023-05-14T10:33:52.655Z,37.70
2023-05-14T10:37:01.737Z,36.48
2023-05-14T10:40:10.323Z,36.75
2023-05-14T10:43:17.928Z,35.96
2023-05-14T10:46:27.435Z,35.46
2023-05-14T10:49:43.042Z,35.81
2023-05-14T10:52:50.263Z,36.17
2023-05-14T10:55:59.009Z,35.70
2023-05-14T10:59:06.253Z,35.81
2023-05-14T11:02:24.745Z,34.17
2023-05-14T11:05:31.303Z,33.64
2023-05-14T11:08:37.414Z,33.49
2023-05-14T11:11:43.957Z,32.78
2023-05-14T11:14:50.728Z,33.19
2023-05-14T11:18:00.106Z,32.87
2023-05-14T11:21:06.909Z,32.75
2023-05-14T11:24:13.669Z,32.56
2023-05-14T11:27:21.265Z,32.04
2023-05-14T11:30:29.731Z,31.67
2023-05-14T11:33:39.440Z,31.52
2023-05-14T11:36:46.059Z,32.23
2023-05-14T11:39:54.146Z,31.77
2023-05-14T11:43:01.028Z,31.98
2023-05-14T11:46:06.861Z,32.21
2023-05-14T11:49:16.260Z,32.34
2023-05-14T11:52:22.361Z,31.05
2023-05-14T11:55:30.680Z,29.87
2023-05-14T11:58:37.199Z,30.38
2023-05-14T12:01:43.706Z,30.59
2023-05-14T12:04:55.095Z,31.09
2023-05-14T12:08:01.459Z,30.19
2023-05-14T12:11:07.325Z,29.72
2023-05-14T12:14:20.620Z,29.75
2023-05-14T12:17:26.944Z,29.70
2023-05-14T12:20:36.220Z,30.00
2023-05-14T12:23:42.670Z,29.71
2023-05-14T12:26:51.023Z,30.69
2023-05-14T12:30:19.873Z,30.69
2023-05-14T12:33:27.563Z,30.86
2023-05-14T12:36:36.489Z,30.80
2023-05-14T12:39:42.911Z,30.47
2023-05-14T12:42:48.523Z,30.20
2023-05-14T12:45:55.725Z,29.85
2023-05-14T12:49:01.690Z,30.21
2023-05-14T12:55:19.669Z,30.28
2023-05-14T12:58:26.341Z,29.98
2023-05-14T13:01:32.260Z,30.26
2023-05-14T13:04:38.782Z,31.02
2023-05-14T13:07:47.269Z,31.06
2023-05-14T13:10:53.986Z,30.77
2023-05-14T13:13:59.526Z,30.44
2023-05-14T13:17:08.366Z,30.53
2023-05-14T13:20:14.901Z,30.88
2023-05-14T13:23:24.176Z,31.62
2023-05-14T13:26:29.921Z,31.27
2023-05-14T13:29:36.555Z,31.19
2023-05-14T13:32:42.385Z,30.75
2023-05-14T13:35:49.241Z,31.26
2023-05-14T13:38:58.057Z,30.94
2023-05-14T13:42:04.572Z,31.33
2023-05-14T13:45:12.120Z,31.28
2023-05-14T13:48:18.815Z,31.87
2023-05-14T13:51:25.300Z,32.21
2023-05-14T13:54:34.698Z,32.15
2023-05-14T13:57:40.580Z,32.53
2023-05-14T14:00:47.185Z,32.39
2023-05-14T14:03:52.899Z,32.30
2023-05-14T14:06:59.507Z,32.81
2023-05-14T14:10:09.281Z,32.21
2023-05-14T14:13:16.204Z,32.08
2023-05-14T14:16:22.122Z,31.61
2023-05-14T14:19:28.874Z,31.83
2023-05-14T14:22:34.895Z,31.55
2023-05-14T14:25:44.305Z,31.73
2023-05-14T14:28:50.167Z,31.98
2023-05-14T14:31:57.749Z,32.20
2023-05-14T14:35:03.630Z,31.69
2023-05-14T14:38:11.713Z,32.28
2023-05-14T14:41:20.205Z,32.53
2023-05-14T14:44:27.203Z,32.86
2023-05-14T14:47:33.480Z,33.07
2023-05-14T14:50:40.377Z,33.21
2023-05-14T14:53:46.564Z,33.36
2023-05-14T14:56:56.106Z,33.72
2023-05-14T15:00:03.980Z,33.32
2023-05-14T15:03:11.451Z,34.17
2023-05-14T15:06:17.584Z,34.32
2023-05-14T15:09:24.947Z,34.68
2023-05-14T15:12:33.836Z,34.83
2023-05-14T15:15:40.735Z,34.49
2023-05-14T15:18:46.950Z,33.71
2023-05-14T15:21:54.474Z,34.05
2023-05-14T15:25:00.725Z,34.16
2023-05-14T15:28:11.188Z,34.36
2023-05-14T15:31:17.155Z,33.90
2023-05-14T15:34:23.734Z,34.04
2023-05-14T15:37:30.191Z,34.71
2023-05-14T15:40:36.889Z,34.62
2023-05-14T15:43:45.716Z,34.36
2023-05-14T15:46:52.500Z,34.55
2023-05-14T15:49:58.756Z,34.86
2023-05-14T15:53:05.374Z,34.37
2023-05-14T15:56:11.591Z,34.40
2023-05-14T15:59:20.948Z,34.25
2023-05-14T16:02:26.542Z,34.25
2023-05-14T16:05:33.376Z,35.10
2023-05-14T16:08:39.054Z,34.95
2023-05-14T16:11:46.007Z,34.37
2023-05-14T16:14:57.881Z,34.84
2023-05-14T16:18:04.800Z,34.92
2023-05-14T16:21:12.278Z,34.94
2023-05-14T16:24:21.967Z,34.82
2023-05-14T16:27:27.779Z,34.83
2023-05-14T16:30:37.358Z,35.61
2023-05-14T16:33:43.207Z,34.91
2023-05-14T16:36:49.908Z,35.93
2023-05-14T16:39:56.080Z,36.15
2023-05-14T16:43:02.716Z,36.21
2023-05-14T16:46:11.817Z,36.36
2023-05-14T16:49:22.599Z,36.23
2023-05-14T16:52:29.348Z,36.64
2023-05-14T16:55:36.449Z,36.63
2023-05-14T16:58:42.350Z,37.13
2023-05-14T17:01:52.097Z,36.84
2023-05-14T17:04:58.333Z,37.21
2023-05-14T17:08:05.233Z,36.94
2023-05-14T17:11:11.155Z,37.53
2023-05-14T17:14:17.834Z,37.45
2023-05-14T17:17:27.120Z,37.38
2023-05-14T17:20:34.160Z,37.64
2023-05-14T17:23:39.989Z,37.78
2023-05-14T17:26:47.520Z,38.10
2023-05-14T17:29:54.411Z,38.22
2023-05-14T17:33:04.352Z,38.29
2023-05-14T17:36:11.362Z,38.08
2023-05-14T17:39:18.647Z,38.51
2023-05-14T17:42:25.086Z,38.28
2023-05-14T17:45:39.374Z,38.62
2023-05-14T17:48:55.877Z,38.84
2023-05-14T17:52:06.515Z,39.21
2023-05-14T17:55:13.184Z,39.15
2023-05-14T17:58:20.148Z,40.35
2023-05-14T18:01:26.292Z,40.57
2023-05-14T18:04:36.079Z,40.88
2023-05-14T18:07:45.066Z,40.62
2023-05-14T18:10:52.604Z,41.98
2023-05-14T18:14:00.338Z,43.07
2023-05-14T18:17:09.218Z,43.89
2023-05-14T18:20:19.887Z,44.29
2023-05-14T18:23:27.493Z,44.74
2023-05-14T18:26:34.334Z,46.84
2023-05-14T18:29:42.940Z,47.19
2023-05-14T18:32:49.122Z,48.34
2023-05-14T18:36:00.834Z,48.74
2023-05-14T18:39:07.923Z,49.69
2023-05-14T18:42:16.978Z,50.33
2023-05-14T18:45:24.603Z,50.63
2023-05-14T18:48:34.647Z,51.27
2023-05-14T18:51:44.288Z,51.84
2023-05-14T18:54:51.136Z,52.98
2023-05-14T18:57:57.800Z,53.92
2023-05-14T19:01:06.011Z,55.06
2023-05-14T19:04:12.640Z,55.93
2023-05-14T19:07:23.237Z,55.25
2023-05-14T19:10:31.958Z,55.40
2023-05-14T19:13:46.888Z,55.08
2023-05-14T19:16:53.158Z,54.13
2023-05-14T19:20:00.722Z,55.07
2023-05-14T19:23:14.200Z,55.65
2023-05-14T19:26:22.721Z,56.46
2023-05-14T19:29:29.216Z,57.08
2023-05-14T19:32:39.391Z,57.55
2023-05-14T19:35:46.208Z,58.29
2023-05-14T19:38:55.794Z,59.15
2023-05-14T19:42:03.971Z,59.86
2023-05-14T19:45:11.678Z,60.39
2023-05-14T19:48:20.607Z,60.91
2023-05-14T19:51:28.218Z,61.05
2023-05-14T19:54:39.497Z,60.80
2023-05-14T19:57:47.017Z,61.84
2023-05-14T20:00:57.556Z,62.27
2023-05-14T20:04:04.357Z,63.70
2023-05-14T20:07:12.256Z,63.66
2023-05-14T20:10:22.313Z,63.96
2023-05-14T20:13:28.202Z,63.37
2023-05-14T20:16:35.278Z,63.77
2023-05-14T20:19:41.976Z,63.97
2023-05-14T20:22:49.265Z,64.74
2023-05-14T20:25:58.765Z,64.71
2023-05-14T20:29:06.051Z,65.28
2023-05-14T20:32:13.820Z,64.28
2023-05-14T20:35:21.872Z,64.18
2023-05-14T20:38:29.650Z,64.85
2023-05-14T20:41:39.687Z,64.80
2023-05-14T20:44:45.524Z,64.59
2023-05-14T20:47:53.561Z,64.71
2023-05-14T20:50:59.639Z,64.59
2023-05-14T20:54:06.654Z,64.46
2023-05-14T20:57:16.568Z,64.55
2023-05-14T21:00:23.912Z,65.28
2023-05-14T21:03:29.934Z,66.50
2023-05-14T21:06:36.940Z,67.08
2023-05-14T21:09:44.256Z,68.43
2023-05-14T21:12:54.019Z,69.41
2023-05-14T21:16:00.632Z,69.63
2023-05-14T21:19:07.307Z,69.95
2023-05-14T21:22:13.020Z,69.99
2023-05-14T21:25:19.669Z,69.63
2023-05-14T21:28:28.155Z,69.87
2023-05-14T21:31:34.649Z,69.90
2023-05-14T21:34:40.471Z,70.00
2023-05-14T21:37:47.027Z,69.59
2023-05-14T21:40:52.942Z,69.72
2023-05-14T21:44:02.108Z,69.17
2023-05-14T21:47:08.526Z,69.29
2023-05-14T21:50:14.961Z,68.79
2023-05-14T21:53:20.495Z,69.25
2023-05-14T21:56:27.681Z,69.50
2023-05-14T21:59:37.191Z,69.60
2023-05-14T22:02:43.599Z,70.12
2023-05-14T22:05:49.558Z,70.62
2023-05-14T22:08:56.071Z,70.67
2023-05-14T22:12:01.616Z,70.65
2023-05-14T22:15:13.055Z,70.38
2023-05-14T22:18:18.650Z,70.56
2023-05-14T22:21:24.976Z,69.44
2023-05-14T22:24:30.500Z,69.49
2023-05-14T22:27:37.015Z,69.08
2023-05-14T22:30:45.648Z,68.66
2023-05-14T22:33:51.956Z,68.30
2023-05-14T22:36:57.782Z,68.01
2023-05-14T22:40:05.432Z,67.89
2023-05-14T22:43:11.497Z,67.86
2023-05-14T22:46:21.471Z,67.25
2023-05-14T22:49:26.955Z,66.54
2023-05-14T22:52:33.536Z,66.24
2023-05-14T22:55:39.157Z,66.16
2023-05-14T22:58:45.705Z,65.85
2023-05-14T23:01:54.029Z,65.77
2023-05-14T23:05:00.464Z,65.61
2023-05-14T23:08:06.216Z,65.29
2023-05-14T23:11:12.627Z,65.46
2023-05-14T23:14:18.578Z,65.50
2023-05-14T23:17:27.849Z,65.71
2023-05-14T23:20:33.759Z,65.43
2023-05-14T23:23:40.083Z,65.51
2023-05-14T23:26:45.883Z,65.21
2023-05-14T23:29:52.392Z,65.37
2023-05-14T23:33:00.794Z,65.71
2023-05-14T23:36:07.572Z,65.27
2023-05-14T23:39:13.509Z,65.06
2023-05-14T23:42:20.434Z,65.47
2023-05-14T23:45:26.113Z,65.81
2023-05-14T23:48:35.712Z,65.25
2023-05-14T23:51:41.297Z,65.41
2023-05-14T23:54:47.758Z,65.28
2023-05-14T23:57:53.452Z,65.70
